Days Creek, Oregon
Current Conditions -  °F | °C
As of 8:53 PM on Monday 20 Oct 2014 (Local Time) from KRBG Reporting Station
Broken Clouds Broken Clouds  
Wind Chill: 55°   Ceiling: 6500
Heat Index: 55°   Visibility: 10mi
Dew Point: 48°   Wind: 3mph
Humidity: 77%   Direction: 180°S
Pressure: 29.9"   Gusts: NA
Location:  42.97°N, 123.17°W
Report Text: KRBG 210353Z AUTO 18003KT 10SM FEW047 BKN065 BKN075 13/09 A2990 RMK AO2 SLP126 T01280089 $
Loading
Personal Weather Stations






























Interactive Weather Map
Tropical Storm Tracking
New forecast layout! Learn more

10-Day Weather Forecast

Advertisements
Track Severe Weather on mobile